createdAt,value
2024-02-05T00:05:21.579Z,11.00
2024-02-05T00:12:22.113Z,11.00
2024-02-05T00:19:22.754Z,11.00
2024-02-05T00:26:23.376Z,11.00
2024-02-05T00:33:24.027Z,11.00
2024-02-05T00:40:24.347Z,11.00
2024-02-05T00:47:24.729Z,11.00
2024-02-05T00:54:25.265Z,11.00
2024-02-05T01:01:26.050Z,11.00
2024-02-05T01:08:26.557Z,11.00
2024-02-05T01:15:27.077Z,11.00
2024-02-05T01:22:28.553Z,11.10
2024-02-05T01:29:28.751Z,11.10
2024-02-05T01:36:29.503Z,11.00
2024-02-05T01:43:30.102Z,11.00
2024-02-05T01:50:31.794Z,11.00
2024-02-05T01:57:32.853Z,11.00
2024-02-05T02:04:34.347Z,11.00
2024-02-05T02:11:35.032Z,11.00
2024-02-05T02:18:37.926Z,11.00
2024-02-05T02:25:41.675Z,11.00
2024-02-05T02:33:18.234Z,10.90
2024-02-05T02:40:22.215Z,10.90
2024-02-05T02:47:22.682Z,10.90
2024-02-05T02:54:23.645Z,10.90
2024-02-05T03:01:24.438Z,10.90
2024-02-05T03:08:25.415Z,10.90
2024-02-05T03:15:25.847Z,10.90
2024-02-05T03:22:26.313Z,10.90
2024-02-05T03:29:26.746Z,10.80
2024-02-05T03:36:27.258Z,10.90
2024-02-05T03:43:27.716Z,10.80
2024-02-05T03:50:29.641Z,10.80
2024-02-05T03:57:29.888Z,10.80
2024-02-05T04:04:30.455Z,10.80
2024-02-05T04:11:30.975Z,10.80
2024-02-05T04:18:31.473Z,10.80
2024-02-05T04:25:31.806Z,10.80
2024-02-05T04:32:32.662Z,10.80
2024-02-05T04:39:33.535Z,10.70
2024-02-05T04:46:34.215Z,10.70
2024-02-05T04:53:34.740Z,10.70
2024-02-05T05:00:35.528Z,10.70
2024-02-05T05:07:35.824Z,10.60
2024-02-05T05:14:38.291Z,10.60
2024-02-05T05:21:38.802Z,10.60
2024-02-05T05:28:44.258Z,10.60
2024-02-05T05:35:44.502Z,10.60
2024-02-05T05:42:44.976Z,10.60
2024-02-05T05:49:45.406Z,10.60
2024-02-05T05:56:45.781Z,10.50
2024-02-05T06:03:46.264Z,10.50
2024-02-05T06:10:46.882Z,10.50
2024-02-05T06:17:47.400Z,10.60
2024-02-05T06:24:47.808Z,10.60
2024-02-05T06:31:48.562Z,10.50
2024-02-05T06:38:49.109Z,10.60
2024-02-05T06:45:49.711Z,10.50
2024-02-05T06:52:50.267Z,10.50
2024-02-05T06:59:50.668Z,10.50
2024-02-05T07:06:51.386Z,10.40
2024-02-05T07:13:52.058Z,10.40
2024-02-05T07:20:52.529Z,10.40
2024-02-05T07:27:53.084Z,10.30
2024-02-05T07:34:53.737Z,10.30
2024-02-05T07:41:54.391Z,10.30
2024-02-05T07:48:55.404Z,10.30
2024-02-05T07:55:55.803Z,10.40
2024-02-05T08:02:56.340Z,10.40
2024-02-05T08:09:56.852Z,10.40
2024-02-05T08:16:57.270Z,10.40
2024-02-05T08:24:00.357Z,10.40
2024-02-05T08:31:00.893Z,10.40
2024-02-05T08:38:01.374Z,10.40
2024-02-05T08:45:04.159Z,10.30
2024-02-05T08:52:05.569Z,10.30
2024-02-05T08:59:06.416Z,10.30
2024-02-05T09:06:06.851Z,10.30
2024-02-05T09:13:07.393Z,10.30
2024-02-05T09:20:08.315Z,10.30
2024-02-05T09:27:09.122Z,10.40
2024-02-05T09:34:09.886Z,10.40
2024-02-05T09:41:17.933Z,10.50
2024-02-05T09:48:27.730Z,10.60
2024-02-05T09:55:34.667Z,10.70
2024-02-05T10:02:35.975Z,10.80
2024-02-05T10:09:37.301Z,10.90
2024-02-05T10:16:40.891Z,11.00
2024-02-05T10:23:41.499Z,11.20
2024-02-05T10:30:41.989Z,11.20
2024-02-05T10:37:42.343Z,11.30
2024-02-05T10:44:43.391Z,11.30
2024-02-05T10:51:45.445Z,11.30
2024-02-05T10:58:46.495Z,11.30
2024-02-05T11:05:52.658Z,11.40
2024-02-05T11:13:00.345Z,11.50
2024-02-05T11:20:03.097Z,11.70
2024-02-05T11:27:05.427Z,11.70
2024-02-05T11:34:08.826Z,11.80
2024-02-05T11:41:10.675Z,11.90
2024-02-05T11:48:11.883Z,11.80
2024-02-05T11:55:16.704Z,11.60
2024-02-05T12:02:17.211Z,11.50
2024-02-05T12:09:18.750Z,11.40
2024-02-05T12:16:19.399Z,11.40
2024-02-05T12:23:19.860Z,11.50
2024-02-05T12:30:20.574Z,11.70
2024-02-05T12:37:23.001Z,11.80
2024-02-05T12:44:31.261Z,11.90
2024-02-05T12:51:38.506Z,11.90
2024-02-05T12:58:39.929Z,12.00
2024-02-05T13:05:42.828Z,12.10
2024-02-05T13:12:43.201Z,12.10
2024-02-05T13:19:43.855Z,12.40
2024-02-05T13:26:50.965Z,12.40
2024-02-05T13:33:51.359Z,12.20
2024-02-05T13:40:51.869Z,12.20
2024-02-05T13:47:53.360Z,12.00
2024-02-05T13:54:53.703Z,11.90
2024-02-05T14:01:55.223Z,11.80
2024-02-05T14:08:55.520Z,11.70
2024-02-05T14:15:56.419Z,11.60
2024-02-05T14:22:56.872Z,11.50
2024-02-05T14:29:57.343Z,11.40
2024-02-05T14:36:57.875Z,11.30
2024-02-05T14:43:58.339Z,11.20
2024-02-05T14:50:58.849Z,11.20
2024-02-05T14:58:00.914Z,11.20
2024-02-05T15:05:01.758Z,11.20
2024-02-05T15:12:04.079Z,11.20
2024-02-05T15:19:04.563Z,11.30
2024-02-05T15:26:05.067Z,11.20
2024-02-05T15:33:06.903Z,11.30
2024-02-05T15:40:09.289Z,11.30
2024-02-05T15:47:09.978Z,11.30
2024-02-05T15:54:10.432Z,11.30
2024-02-05T16:01:10.889Z,11.20
2024-02-05T16:08:11.430Z,11.00
2024-02-05T16:15:11.976Z,10.80
2024-02-05T16:22:12.454Z,10.70
2024-02-05T16:29:12.936Z,10.50
2024-02-05T16:36:14.717Z,10.30
2024-02-05T16:43:15.306Z,10.10
2024-02-05T16:50:15.951Z,10.10
2024-02-05T16:57:18.756Z,10.00
2024-02-05T17:04:19.134Z,9.90
2024-02-05T17:11:20.932Z,9.90
2024-02-05T17:18:22.102Z,9.90
2024-02-05T17:25:22.969Z,9.80
2024-02-05T17:36:42.835Z,9.80
2024-02-05T17:43:43.416Z,9.70
2024-02-05T17:50:44.020Z,9.70
2024-02-05T17:57:44.545Z,9.70
2024-02-05T18:04:45.359Z,9.60
2024-02-05T18:11:46.137Z,9.60
2024-02-05T18:18:46.810Z,9.50
2024-02-05T18:25:47.305Z,9.50
2024-02-05T18:32:47.601Z,9.40
2024-02-05T18:39:48.777Z,9.40
2024-02-05T18:46:49.719Z,9.40
2024-02-05T18:53:50.186Z,9.40
2024-02-05T19:00:50.823Z,9.40
2024-02-05T19:07:51.178Z,9.40
2024-02-05T19:14:51.756Z,9.30
2024-02-05T19:21:52.245Z,9.40
2024-02-05T19:28:55.236Z,9.40
2024-02-05T19:35:55.364Z,9.30
2024-02-05T19:42:55.874Z,9.30
2024-02-05T19:49:56.538Z,9.30
2024-02-05T19:56:56.808Z,9.30
2024-02-05T20:03:57.408Z,9.30
2024-02-05T20:10:57.825Z,9.30
2024-02-05T20:17:58.468Z,9.30
2024-02-05T20:24:59.574Z,9.30
2024-02-05T20:31:59.757Z,9.30
2024-02-05T20:39:00.253Z,9.20
2024-02-05T20:46:00.787Z,9.20
2024-02-05T20:53:03.126Z,9.10
2024-02-05T21:00:06.286Z,9.10
2024-02-05T21:07:06.727Z,9.10
2024-02-05T21:14:07.645Z,9.00
2024-02-05T21:21:08.128Z,9.00
2024-02-05T21:28:10.070Z,8.90
2024-02-05T21:35:12.595Z,8.90
2024-02-05T21:42:12.985Z,8.90
2024-02-05T21:49:13.663Z,8.90
2024-02-05T21:56:14.087Z,8.90
2024-02-05T22:03:14.494Z,8.90
2024-02-05T22:10:14.972Z,8.90
2024-02-05T22:17:15.779Z,9.00
2024-02-05T22:24:15.985Z,9.00
2024-02-05T22:31:16.634Z,9.00
2024-02-05T22:38:16.941Z,9.00
2024-02-05T22:45:17.645Z,9.00
2024-02-05T22:52:18.109Z,9.10
2024-02-05T22:59:18.833Z,9.10
2024-02-05T23:06:19.740Z,9.00
2024-02-05T23:13:20.549Z,9.00
2024-02-05T23:20:20.809Z,9.00
2024-02-05T23:27:21.216Z,9.00
2024-02-05T23:34:22.046Z,9.00
2024-02-05T23:41:22.364Z,9.00
2024-02-05T23:48:22.876Z,9.00
2024-02-05T23:55:23.521Z,9.10
